Time;durP1;ratioP1;P1;durP2;ratioP2;P2;SDS_P1;SDS_P2;PMS_P1;PMS_P2;Temp;Humidity;BMP_temperature;BMP_pressure;BME280_temperature;BME280_humidity;BME280_pressure;Samples;Min_cycle;Max_cycle;Signal;HPM_P1;HPM_P2
2022/09/30 00:03:19;;;;;;;7.88;3.80;;;6.10;99.90;;;;;;8259446;28;20018;-78
2022/09/30 00:07:19;;;;;;;9.20;3.60;;;6.10;99.90;;;;;;8267425;28;20081;-78
2022/09/30 00:11:24;;;;;;;11.38;3.60;;;5.80;99.90;;;;;;8273515;28;20038;-77
2022/09/30 00:15:24;;;;;;;19.33;4.53;;;5.50;99.90;;;;;;8273680;28;20094;-79
2022/09/30 00:19:26;;;;;;;23.30;4.47;;;5.30;99.90;;;;;;8276317;28;20093;-79
2022/09/30 00:23:27;;;;;;;14.15;5.78;;;5.20;99.90;;;;;;8286331;28;20033;-78
2022/09/30 00:27:28;;;;;;;19.42;6.13;;;5.40;99.90;;;;;;8264126;28;20494;-78
2022/09/30 00:31:32;;;;;;;113.38;8.93;;;5.40;99.90;;;;;;8263924;28;20033;-77
2022/09/30 00:35:32;;;;;;;21.33;6.20;;;5.50;99.90;;;;;;8265250;28;20027;-76
2022/09/30 00:39:36;;;;;;;57.17;7.75;;;5.50;99.90;;;;;;8259703;28;20030;-78
2022/09/30 00:43:50;;;;;;;76.43;7.50;;;5.60;99.90;;;;;;8261893;28;20113;-77
2022/09/30 00:47:54;;;;;;;18.48;5.82;;;5.80;99.90;;;;;;8264576;28;20486;-78
2022/09/30 00:51:56;;;;;;;42.03;6.32;;;5.80;99.90;;;;;;8264880;28;20033;-77
2022/09/30 00:56:05;;;;;;;76.75;6.80;;;5.80;99.90;;;;;;8263968;28;20085;-78
2022/09/30 01:00:06;;;;;;;13.38;5.28;;;6.30;99.90;;;;;;8262268;28;20048;-77
2022/09/30 01:04:15;;;;;;;89.63;5.20;;;6.40;99.90;;;;;;8264663;28;20046;-78
2022/09/30 01:08:17;;;;;;;43.85;5.03;;;6.40;99.90;;;;;;8264320;28;20437;-78
2022/09/30 01:12:21;;;;;;;41.15;4.38;;;6.60;99.90;;;;;;8266309;28;20026;-77
2022/09/30 01:16:21;;;;;;;37.63;4.85;;;6.60;99.90;;;;;;8259327;28;20068;-79
2022/09/30 01:21:08;;;;;;;67.82;4.55;;;6.40;99.90;;;;;;8265369;28;20026;-77
2022/09/30 01:25:24;;;;;;;62.72;4.60;;;6.50;99.90;;;;;;8262599;28;20101;-77
2022/09/30 01:29:57;;;;;;;41.33;4.28;;;6.50;99.90;;;;;;8263764;28;20117;-78
2022/09/30 01:34:20;;;;;;;37.92;4.28;;;6.40;99.90;;;;;;8265183;28;20018;-77
2022/09/30 01:38:43;;;;;;;96.70;5.30;;;6.20;99.90;;;;;;8254280;28;20073;-76
2022/09/30 01:43:24;;;;;;;22.83;4.53;;;6.30;99.90;;;;;;8266616;28;20829;-78
2022/09/30 01:47:29;;;;;;;32.85;5.05;;;6.10;99.90;;;;;;8239346;28;20038;-77
2022/09/30 01:51:57;;;;;;;115.97;7.60;;;6.10;99.90;;;;;;8264375;28;20060;-79
2022/09/30 01:56:06;;;;;;;94.72;6.65;;;6.20;99.90;;;;;;8266081;28;20502;-77
2022/09/30 02:00:09;;;;;;;88.68;7.32;;;6.10;99.90;;;;;;8258969;28;20022;-77
2022/09/30 02:04:16;;;;;;;94.20;6.68;;;6.10;99.90;;;;;;8262931;28;20037;-78
2022/09/30 02:08:29;;;;;;;102.03;5.97;;;6.20;99.90;;;;;;8266408;28;20038;-77
2022/09/30 02:12:36;;;;;;;67.80;5.38;;;6.40;99.90;;;;;;8266855;28;20030;-78
2022/09/30 02:16:40;;;;;;;54.03;5.15;;;6.30;99.90;;;;;;8266030;28;20457;-77
2022/09/30 02:20:43;;;;;;;32.85;4.53;;;6.30;99.90;;;;;;8266045;28;20019;-79
2022/09/30 02:24:49;;;;;;;149.40;7.40;;;6.20;99.90;;;;;;8267222;28;20023;-79
2022/09/30 02:29:03;;;;;;;119.88;5.95;;;6.10;99.90;;;;;;8267338;28;20022;-78
2022/09/30 02:33:10;;;;;;;43.13;5.38;;;6.50;99.90;;;;;;8266875;28;20049;-76
2022/09/30 02:37:23;;;;;;;68.95;6.30;;;6.80;99.90;;;;;;8271630;28;20446;-78
2022/09/30 02:41:25;;;;;;;50.45;5.60;;;6.50;99.90;;;;;;8267188;28;20026;-78
2022/09/30 02:45:30;;;;;;;68.25;6.15;;;6.60;99.90;;;;;;8272429;28;20022;-78
2022/09/30 02:49:50;;;;;;;36.88;6.18;;;6.40;99.90;;;;;;8275319;28;20053;-78
2022/09/30 02:54:13;;;;;;;27.75;6.47;;;6.40;99.90;;;;;;8272417;28;20018;-78
2022/09/30 02:58:17;;;;;;;82.22;8.02;;;6.20;99.90;;;;;;8272331;28;20069;-79
2022/09/30 03:02:19;;;;;;;32.47;8.10;;;6.30;99.90;;;;;;8269002;28;20082;-79
2022/09/30 03:06:20;;;;;;;38.00;8.73;;;6.00;99.90;;;;;;8266617;28;20058;-77
2022/09/30 03:10:20;;;;;;;32.30;8.43;;;5.90;99.90;;;;;;8274684;28;20517;-78
2022/09/30 03:14:45;;;;;;;45.13;8.18;;;5.80;99.90;;;;;;8273948;28;20039;-78
2022/09/30 03:19:08;;;;;;;39.42;7.30;;;5.90;99.90;;;;;;8275066;28;20042;-79
2022/09/30 03:23:29;;;;;;;28.98;6.40;;;6.20;99.90;;;;;;8275492;28;20491;-77
2022/09/30 03:28:11;;;;;;;18.85;6.22;;;6.20;99.90;;;;;;8277656;28;20030;-78
2022/09/30 03:32:15;;;;;;;;;;;6.10;99.90;;;;;;8270414;28;20037;-77
2022/09/30 03:36:30;;;;;;;125.20;8.43;;;6.00;99.90;;;;;;8262731;28;19914;-78
2022/09/30 03:40:52;;;;;;;81.00;7.43;;;6.10;99.90;;;;;;8267571;28;20019;-79
2022/09/30 03:45:10;;;;;;;65.35;7.35;;;6.10;99.90;;;;;;8273975;28;20064;-78
2022/09/30 03:49:15;;;;;;;88.38;7.43;;;5.90;99.90;;;;;;8272215;28;20029;-77
2022/09/30 03:53:16;;;;;;;51.67;6.60;;;6.10;99.90;;;;;;8273733;28;20064;-79
2022/09/30 03:57:17;;;;;;;86.85;7.55;;;6.30;99.90;;;;;;8272500;28;20026;-78
2022/09/30 04:01:22;;;;;;;64.65;7.28;;;6.30;99.90;;;;;;8269887;28;20105;-78
2022/09/30 04:05:22;;;;;;;95.00;7.97;;;6.30;99.90;;;;;;8266534;28;20395;-76
2022/09/30 04:09:23;;;;;;;90.05;7.95;;;6.10;99.90;;;;;;8261956;28;20031;-77
2022/09/30 04:13:23;;;;;;;62.40;6.38;;;6.10;99.90;;;;;;8266031;28;20030;-78
2022/09/30 04:17:24;;;;;;;78.18;7.57;;;6.10;99.90;;;;;;8261096;28;20045;-76
2022/09/30 04:21:27;;;;;;;118.70;8.57;;;5.90;99.90;;;;;;8266360;28;20053;-76
2022/09/30 04:25:28;;;;;;;45.08;6.85;;;5.90;99.90;;;;;;8264289;28;20029;-77
2022/09/30 04:29:29;;;;;;;29.30;6.60;;;6.10;99.90;;;;;;8267057;28;20042;-78
2022/09/30 04:33:30;;;;;;;40.40;7.07;;;6.10;99.90;;;;;;8264942;28;20034;-78
2022/09/30 04:37:31;;;;;;;53.95;7.85;;;5.90;99.90;;;;;;8256508;28;20387;-78
2022/09/30 04:41:33;;;;;;;43.25;6.85;;;5.90;99.90;;;;;;8261268;28;20030;-78
2022/09/30 04:45:33;;;;;;;77.70;7.50;;;6.10;99.90;;;;;;8259260;28;20687;-78
2022/09/30 04:49:34;;;;;;;40.13;6.85;;;6.10;99.90;;;;;;8262076;28;20100;-78
2022/09/30 04:53:34;;;;;;;65.50;8.18;;;6.10;99.90;;;;;;8260734;28;20044;-77
2022/09/30 04:57:35;;;;;;;79.05;7.57;;;6.10;99.90;;;;;;8265870;28;20033;-78
2022/09/30 05:01:36;;;;;;;69.13;7.57;;;6.30;99.90;;;;;;8265235;28;20098;-76
2022/09/30 05:05:36;;;;;;;150.60;8.82;;;6.30;99.90;;;;;;8266278;28;20011;-77
2022/09/30 05:09:37;;;;;;;91.57;7.97;;;6.20;99.90;;;;;;8266865;28;20052;-77
2022/09/30 05:13:40;;;;;;;65.53;7.57;;;6.00;99.90;;;;;;8267402;28;20376;-77
2022/09/30 05:17:41;;;;;;;74.35;6.70;;;6.00;99.90;;;;;;8267003;28;20018;-77
2022/09/30 05:21:43;;;;;;;41.25;6.28;;;6.00;99.90;;;;;;8266492;28;20538;-77
2022/09/30 05:25:45;;;;;;;47.33;7.03;;;5.90;99.90;;;;;;8266976;28;20033;-76
2022/09/30 05:29:45;;;;;;;57.08;6.80;;;5.70;99.90;;;;;;8268119;28;20034;-77
2022/09/30 05:33:46;;;;;;;61.83;6.60;;;5.70;99.90;;;;;;8268539;28;20502;-77
2022/09/30 05:37:47;;;;;;;132.07;8.00;;;5.60;99.90;;;;;;8266730;28;20027;-76
2022/09/30 05:41:48;;;;;;;84.20;6.32;;;5.80;99.90;;;;;;8267856;28;20026;-77
2022/09/30 05:45:55;;;;;;;53.78;5.18;;;5.60;99.90;;;;;;8267760;28;20037;-77
2022/09/30 05:49:56;;;;;;;86.88;6.50;;;5.80;99.90;;;;;;8267545;28;20094;-77
2022/09/30 05:53:56;;;;;;;76.07;5.45;;;5.90;99.90;;;;;;8266938;28;20026;-77
2022/09/30 05:57:57;;;;;;;170.68;7.85;;;6.00;99.90;;;;;;8260612;28;20519;-78
2022/09/30 06:01:57;;;;;;;184.52;8.50;;;5.90;99.90;;;;;;8266432;28;20073;-77
2022/09/30 06:05:58;;;;;;;87.55;7.32;;;5.80;99.90;;;;;;8266496;28;20029;-78
2022/09/30 06:09:58;;;;;;;86.20;7.32;;;5.70;99.90;;;;;;8269068;28;20018;-78
2022/09/30 06:13:59;;;;;;;56.30;6.25;;;5.70;99.90;;;;;;8273353;28;20026;-76
2022/09/30 06:18:00;;;;;;;82.40;6.60;;;5.80;99.90;;;;;;8275155;28;20034;-78
2022/09/30 06:22:00;;;;;;;53.88;6.00;;;6.00;99.90;;;;;;8275313;28;20524;-77
2022/09/30 06:26:03;;;;;;;37.55;5.10;;;6.30;99.90;;;;;;8274771;28;20034;-78
2022/09/30 06:30:05;;;;;;;36.67;4.32;;;6.50;99.90;;;;;;8276008;28;20026;-78
2022/09/30 06:34:05;;;;;;;69.28;5.90;;;6.70;99.90;;;;;;8274697;28;20022;-78
2022/09/30 06:38:06;;;;;;;50.33;3.88;;;6.40;99.90;;;;;;8270576;28;20026;-78
2022/09/30 06:42:07;;;;;;;30.25;5.18;;;6.40;99.90;;;;;;8270172;28;20023;-78
2022/09/30 06:46:08;;;;;;;58.83;4.63;;;6.40;99.90;;;;;;8273382;28;20033;-79
2022/09/30 06:50:09;;;;;;;41.63;4.35;;;6.80;99.90;;;;;;8278064;28;20022;-78
2022/09/30 06:54:10;;;;;;;38.67;4.13;;;6.80;99.90;;;;;;8275397;28;20061;-78
2022/09/30 06:58:14;;;;;;;99.57;5.93;;;6.70;99.90;;;;;;8275995;28;20392;-79
2022/09/30 07:02:15;;;;;;;25.80;4.28;;;6.80;99.90;;;;;;8276831;28;20030;-77
2022/09/30 07:06:16;;;;;;;45.80;4.97;;;6.90;99.90;;;;;;8276057;28;20038;-78
2022/09/30 07:10:16;;;;;;;65.95;6.00;;;7.10;99.90;;;;;;8272765;28;20053;-79
2022/09/30 07:14:17;;;;;;;100.43;6.75;;;7.30;99.90;;;;;;8278797;28;20062;-78
2022/09/30 07:18:19;;;;;;;18.00;4.95;;;7.40;99.90;;;;;;8278015;28;20026;-79
2022/09/30 07:22:27;;;;;;;47.63;5.32;;;7.80;99.90;;;;;;8278328;28;20018;-79
2022/09/30 07:26:27;;;;;;;29.73;3.65;;;8.00;99.90;;;;;;8282509;28;20026;-77
2022/09/30 07:30:29;;;;;;;70.78;5.18;;;8.10;99.90;;;;;;8276031;28;20032;-78
2022/09/30 07:34:30;;;;;;;20.58;6.30;;;7.90;99.90;;;;;;8269012;28;20101;-77
2022/09/30 07:38:31;;;;;;;54.85;5.03;;;7.90;99.90;;;;;;8269562;28;20025;-79
2022/09/30 07:42:32;;;;;;;24.73;4.05;;;8.00;99.90;;;;;;8268842;28;20021;-77
2022/09/30 07:46:35;;;;;;;18.73;4.45;;;8.20;99.90;;;;;;8268195;28;20524;-76
2022/09/30 07:50:35;;;;;;;20.80;5.00;;;8.20;99.90;;;;;;8267102;28;20447;-77
2022/09/30 07:54:36;;;;;;;19.35;4.60;;;8.20;99.90;;;;;;8265337;28;20023;-77
2022/09/30 07:58:37;;;;;;;23.65;3.97;;;8.20;99.90;;;;;;8255973;28;20486;-77
2022/09/30 08:02:38;;;;;;;17.75;4.43;;;8.20;99.90;;;;;;8262811;28;20102;-77
2022/09/30 08:06:45;;;;;;;14.75;4.25;;;8.30;99.90;;;;;;8258965;28;20037;-77
2022/09/30 08:10:45;;;;;;;12.70;4.43;;;8.30;99.90;;;;;;8257015;28;20073;-78
2022/09/30 08:14:46;;;;;;;5.75;4.47;;;8.50;99.90;;;;;;8261675;28;20121;-76
2022/09/30 08:18:47;;;;;;;9.95;4.63;;;8.50;99.90;;;;;;8261200;28;20027;-77
2022/09/30 08:22:51;;;;;;;5.78;4.43;;;8.50;99.90;;;;;;8262317;28;20061;-78
2022/09/30 08:26:52;;;;;;;6.47;4.85;;;8.70;99.90;;;;;;8256979;28;20101;-76
2022/09/30 08:30:53;;;;;;;5.00;3.90;;;8.70;99.90;;;;;;8256878;28;20109;-77
2022/09/30 08:34:53;;;;;;;6.90;4.30;;;9.00;99.90;;;;;;8258690;28;20030;-77
2022/09/30 08:38:55;;;;;;;5.35;4.07;;;9.10;99.90;;;;;;8261924;28;20479;-78
2022/09/30 08:43:13;;;;;;;5.72;4.38;;;9.00;99.90;;;;;;8262002;28;20023;-78
2022/09/30 08:47:39;;;;;;;8.10;4.97;;;9.00;99.90;;;;;;8256683;28;20049;-77
2022/09/30 08:51:46;;;;;;;6.03;4.65;;;9.00;99.90;;;;;;8256938;28;20030;-76
2022/09/30 08:55:46;;;;;;;7.13;5.20;;;9.00;99.90;;;;;;8259712;28;20030;-77
2022/09/30 08:59:53;;;;;;;7.68;5.60;;;9.10;99.90;;;;;;8261091;28;20023;-77
2022/09/30 09:03:55;;;;;;;6.93;4.55;;;9.50;99.90;;;;;;8260772;28;20042;-77
2022/09/30 09:08:35;;;;;;;6.15;4.68;;;9.60;99.90;;;;;;8254311;28;20026;-77
2022/09/30 09:13:18;;;;;;;6.50;4.72;;;10.10;99.90;;;;;;8256124;28;20049;-76
2022/09/30 09:17:30;;;;;;;7.35;5.45;;;10.30;99.90;;;;;;8259515;28;20030;-78
2022/09/30 09:21:52;;;;;;;5.40;4.53;;;10.50;99.90;;;;;;8259468;28;20026;-77
2022/09/30 09:25:53;;;;;;;6.43;4.90;;;10.50;99.90;;;;;;8260764;28;20073;-77
2022/09/30 09:30:06;;;;;;;5.50;4.45;;;10.20;99.90;;;;;;8259763;28;20030;-77
2022/09/30 09:34:09;;;;;;;6.93;5.18;;;10.00;99.90;;;;;;8259016;28;20117;-77
2022/09/30 09:38:23;;;;;;;6.85;4.97;;;9.80;99.90;;;;;;8260344;28;20037;-77
2022/09/30 09:42:32;;;;;;;6.68;4.97;;;9.60;99.90;;;;;;8255377;28;20050;-77
2022/09/30 09:46:48;;;;;;;6.72;4.95;;;9.80;99.90;;;;;;8258227;28;20022;-77
2022/09/30 09:51:04;;;;;;;6.88;5.05;;;9.80;99.90;;;;;;8259795;28;20091;-77
2022/09/30 09:55:05;;;;;;;5.43;4.53;;;9.90;99.90;;;;;;8257344;28;20510;-75
2022/09/30 09:59:13;;;;;;;5.90;4.88;;;10.10;99.90;;;;;;8258509;28;20027;-77
2022/09/30 10:03:22;;;;;;;6.47;4.40;;;10.20;99.90;;;;;;8257834;28;20109;-76
2022/09/30 10:07:22;;;;;;;7.70;4.70;;;10.10;99.90;;;;;;8253339;28;20066;-78
2022/09/30 10:11:26;;;;;;;8.80;5.30;;;9.90;99.90;;;;;;8259476;28;20034;-77
2022/09/30 10:15:27;;;;;;;7.53;5.47;;;9.70;99.90;;;;;;8259669;28;20026;-77
2022/09/30 10:19:29;;;;;;;5.78;4.70;;;10.00;99.90;;;;;;8258835;28;20525;-77
2022/09/30 10:23:40;;;;;;;8.27;5.97;;;10.00;99.90;;;;;;8258612;28;20023;-76
2022/09/30 10:27:48;;;;;;;7.93;4.63;;;10.30;99.90;;;;;;8258467;28;20026;-76
2022/09/30 10:31:51;;;;;;;8.52;6.22;;;10.70;99.90;;;;;;8258385;28;20499;-78
2022/09/30 10:35:53;;;;;;;8.32;5.88;;;10.70;99.90;;;;;;8259347;28;20014;-77
2022/09/30 10:40:01;;;;;;;7.95;6.22;;;11.30;99.90;;;;;;8258210;28;20534;-76
2022/09/30 10:44:05;;;;;;;7.07;5.53;;;11.40;99.90;;;;;;8259517;28;20030;-76
2022/09/30 10:48:17;;;;;;;8.07;5.78;;;11.10;99.90;;;;;;8257429;28;20033;-77
2022/09/30 10:52:22;;;;;;;7.53;5.68;;;10.90;99.90;;;;;;8259265;28;20506;-77
2022/09/30 10:56:36;;;;;;;9.68;6.75;;;10.70;99.90;;;;;;8253429;28;20411;-77
2022/09/30 11:00:37;;;;;;;7.93;6.07;;;10.80;99.90;;;;;;8263422;28;20029;-77
2022/09/30 11:04:43;;;;;;;8.48;6.15;;;11.10;99.90;;;;;;8261034;28;20022;-76
2022/09/30 11:08:54;;;;;;;9.15;6.82;;;11.60;99.90;;;;;;8263781;28;20034;-76
2022/09/30 11:13:10;;;;;;;8.85;6.45;;;11.70;99.90;;;;;;8264496;28;20033;-77
2022/09/30 11:17:26;;;;;;;9.10;6.75;;;12.00;99.90;;;;;;8262862;28;20081;-78
2022/09/30 11:21:39;;;;;;;8.55;6.03;;;11.80;99.90;;;;;;8258702;28;20030;-76
2022/09/30 11:25:52;;;;;;;7.80;6.20;;;11.30;99.90;;;;;;8264098;28;20030;-77
2022/09/30 11:30:17;;;;;;;9.35;6.95;;;11.40;99.90;;;;;;8263920;28;20050;-77
2022/09/30 11:34:38;;;;;;;8.15;6.55;;;11.60;99.90;;;;;;8263094;28;20034;-77
2022/09/30 11:39:05;;;;;;;9.13;6.37;;;11.50;99.90;;;;;;8263426;28;20041;-76
2022/09/30 11:43:36;;;;;;;8.38;6.97;;;11.40;99.90;;;;;;8262869;28;20019;-76
2022/09/30 11:48:10;;;;;;;9.93;7.53;;;11.40;99.90;;;;;;8255040;28;20026;-76
2022/09/30 11:52:32;;;;;;;10.13;7.55;;;11.70;99.90;;;;;;8255550;28;20046;-76
2022/09/30 11:56:58;;;;;;;9.27;6.65;;;11.90;99.90;;;;;;8255220;28;20087;-76
2022/09/30 12:01:13;;;;;;;9.68;7.47;;;12.20;99.90;;;;;;8252688;28;20030;-76
2022/09/30 12:05:45;;;;;;;9.63;7.45;;;12.10;99.90;;;;;;8258774;28;20030;-77
2022/09/30 12:09:55;;;;;;;9.68;7.18;;;12.20;99.90;;;;;;8256598;28;20042;-77
2022/09/30 12:14:02;;;;;;;10.50;7.30;;;12.20;99.90;;;;;;8261177;28;20107;-77
2022/09/30 12:18:08;;;;;;;10.23;7.63;;;11.90;99.90;;;;;;8255603;28;20619;-77
2022/09/30 12:22:39;;;;;;;11.50;7.95;;;11.60;99.90;;;;;;8258738;28;20080;-77
2022/09/30 12:26:40;;;;;;;9.57;7.10;;;12.10;99.90;;;;;;8258839;28;20046;-76
2022/09/30 12:30:43;;;;;;;11.60;7.07;;;12.90;99.90;;;;;;8262228;28;20029;-77
2022/09/30 12:35:08;;;;;;;9.95;7.18;;;12.80;99.90;;;;;;8261010;28;20529;-77
2022/09/30 12:39:24;;;;;;;8.98;6.88;;;12.40;99.90;;;;;;8262176;28;20026;-77
2022/09/30 12:44:15;;;;;;;9.32;7.25;;;12.40;99.90;;;;;;8260289;28;20398;-78
2022/09/30 12:48:19;;;;;;;11.32;7.13;;;12.60;99.90;;;;;;8260495;28;20033;-77
2022/09/30 12:52:21;;;;;;;8.52;7.00;;;12.40;99.90;;;;;;8255318;28;20023;-77
2022/09/30 12:56:27;;;;;;;9.45;7.03;;;12.30;99.90;;;;;;8260005;28;20053;-77
2022/09/30 13:00:31;;;;;;;10.07;7.20;;;12.20;99.90;;;;;;8259758;28;20032;-76
2022/09/30 13:04:33;;;;;;;12.77;7.10;;;12.40;99.90;;;;;;8260742;28;20018;-77
2022/09/30 13:09:12;;;;;;;9.05;7.18;;;12.40;99.90;;;;;;8262325;28;20018;-77
2022/09/30 13:13:22;;;;;;;9.63;7.15;;;12.20;99.90;;;;;;8249360;28;20030;-78
2022/09/30 13:17:25;;;;;;;11.77;7.97;;;12.10;99.90;;;;;;8261691;28;20038;-76
2022/09/30 13:21:26;;;;;;;8.70;6.63;;;12.30;99.90;;;;;;8263598;28;20050;-78
2022/09/30 13:25:46;;;;;;;11.68;6.65;;;12.60;99.90;;;;;;8264277;28;20014;-79
2022/09/30 13:29:48;;;;;;;9.13;6.65;;;12.70;99.90;;;;;;8263092;28;20409;-78
2022/09/30 13:34:01;;;;;;;9.07;6.68;;;12.80;99.90;;;;;;8258408;28;20053;-78
2022/09/30 13:38:36;;;;;;;8.98;7.00;;;12.60;99.90;;;;;;8258112;28;20033;-78
2022/09/30 13:42:45;;;;;;;9.10;6.80;;;12.60;99.90;;;;;;8239642;28;20494;-78
2022/09/30 13:46:55;;;;;;;9.25;6.88;;;12.90;99.90;;;;;;8259071;28;21377;-79
2022/09/30 13:50:58;;;;;;;7.63;6.27;;;13.00;99.90;;;;;;8263345;28;20102;-78
2022/09/30 13:55:07;;;;;;;7.72;6.13;;;12.90;99.90;;;;;;8259263;28;20026;-78
2022/09/30 13:59:26;;;;;;;8.52;6.32;;;12.90;99.90;;;;;;8268391;28;20022;-78
2022/09/30 14:03:57;;;;;;;8.65;6.65;;;13.10;99.90;;;;;;8258279;28;20039;-78
2022/09/30 14:08:49;;;;;;;8.13;6.40;;;14.10;99.90;;;;;;8258054;28;20022;-77
2022/09/30 14:13:21;;;;;;;8.18;6.80;;;14.70;99.90;;;;;;8246102;28;20045;-79
2022/09/30 14:17:43;;;;;;;8.15;6.18;;;15.40;99.90;;;;;;8263595;28;20057;-78
2022/09/30 14:21:53;;;;;;;6.78;5.60;;;15.80;99.90;;;;;;8265887;28;20395;-79
2022/09/30 14:26:08;;;;;;;7.30;5.47;;;16.60;99.90;;;;;;8264448;28;20019;-78
2022/09/30 14:30:19;;;;;;;6.28;5.63;;;17.00;99.90;;;;;;8261474;28;20030;-79
2022/09/30 14:34:22;;;;;;;7.78;5.70;;;15.30;99.90;;;;;;8267662;28;20390;-78
2022/09/30 14:38:28;;;;;;;7.82;5.32;;;14.40;99.90;;;;;;8260393;28;20118;-79
2022/09/30 14:42:37;;;;;;;7.72;5.80;;;13.60;99.90;;;;;;8269941;28;20027;-77
2022/09/30 14:46:42;;;;;;;7.63;5.75;;;13.10;99.90;;;;;;8271768;28;20049;-77
2022/09/30 14:51:16;;;;;;;6.55;5.35;;;13.00;99.90;;;;;;8260178;28;20045;-78
2022/09/30 14:55:25;;;;;;;7.57;5.50;;;13.10;99.90;;;;;;8235709;28;20050;-78
2022/09/30 14:59:36;;;;;;;8.27;6.38;;;13.20;99.90;;;;;;8261355;28;20090;-78
2022/09/30 15:03:38;;;;;;;;;;;13.40;99.90;;;;;;8264046;28;20033;-78
2022/09/30 15:07:41;;;;;;;8.30;6.28;;;13.00;99.90;;;;;;8257371;28;19997;-79
2022/09/30 15:11:43;;;;;;;7.63;5.90;;;12.30;99.90;;;;;;8268004;28;20053;-79
2022/09/30 15:15:44;;;;;;;8.77;7.00;;;12.40;99.90;;;;;;8268486;28;20044;-79
2022/09/30 15:19:45;;;;;;;8.07;6.13;;;12.40;99.90;;;;;;8264655;28;20043;-79
2022/09/30 15:23:51;;;;;;;8.75;6.15;;;12.40;99.90;;;;;;8268110;28;20046;-79
2022/09/30 15:27:52;;;;;;;7.75;6.30;;;12.20;99.90;;;;;;8267529;28;20045;-80
2022/09/30 15:32:19;;;;;;;8.10;6.38;;;12.00;99.90;;;;;;8269895;28;20380;-80
2022/09/30 15:36:20;;;;;;;8.45;7.20;;;11.80;99.90;;;;;;8261232;28;20220;-82
2022/09/30 15:44:42;;;;;;;8.85;6.85;;;11.90;99.90;;;;;;8267642;28;20116;-82
2022/09/30 15:48:43;;;;;;;9.07;7.40;;;11.70;99.90;;;;;;8265693;28;20041;-80
2022/09/30 15:52:44;;;;;;;10.93;7.90;;;11.60;99.90;;;;;;8264953;28;20037;-80
2022/09/30 15:56:45;;;;;;;10.50;7.88;;;11.40;99.90;;;;;;8266199;28;20041;-81
2022/09/30 16:00:46;;;;;;;11.90;8.52;;;11.30;99.90;;;;;;8264235;28;20027;-83
2022/09/30 16:04:50;;;;;;;12.25;9.13;;;11.00;99.90;;;;;;8247746;28;20030;-83
2022/09/30 16:09:01;;;;;;;10.27;7.72;;;11.30;99.90;;;;;;8259435;28;20034;-84
2022/09/30 16:13:03;;;;;;;9.75;7.60;;;11.80;99.90;;;;;;8262296;28;20022;-81
2022/09/30 16:17:05;;;;;;;11.02;8.35;;;11.10;99.90;;;;;;8256534;28;20037;-81
2022/09/30 16:21:05;;;;;;;10.00;8.20;;;10.30;99.90;;;;;;8262972;28;20026;-80
2022/09/30 16:25:32;;;;;;;12.50;9.32;;;9.70;99.90;;;;;;8269888;28;20075;-80
2022/09/30 16:29:33;;;;;;;14.30;10.57;;;9.30;99.90;;;;;;8276361;28;20030;-81
2022/09/30 16:33:38;;;;;;;14.15;9.77;;;9.00;99.90;;;;;;8264880;28;20121;-81
2022/09/30 16:37:41;;;;;;;15.05;10.10;;;8.80;99.90;;;;;;8259883;28;20376;-81
2022/09/30 16:41:43;;;;;;;13.02;9.50;;;8.70;99.90;;;;;;8263551;28;20102;-81
2022/09/30 16:45:43;;;;;;;16.52;10.63;;;8.60;99.90;;;;;;8264378;28;20025;-80
2022/09/30 16:49:45;;;;;;;15.43;10.18;;;8.50;99.90;;;;;;8264509;28;20030;-80
2022/09/30 16:53:49;;;;;;;14.57;10.57;;;8.40;99.90;;;;;;8262950;28;20109;-80
2022/09/30 16:57:50;;;;;;;14.90;10.50;;;8.40;99.90;;;;;;8265739;28;20546;-80
2022/09/30 17:01:51;;;;;;;18.83;11.48;;;8.50;99.90;;;;;;8262535;28;20090;-80
2022/09/30 17:05:52;;;;;;;15.23;11.10;;;8.60;99.90;;;;;;8265908;28;20033;-79
2022/09/30 17:09:52;;;;;;;15.90;10.98;;;8.30;99.90;;;;;;8261129;28;20026;-80
2022/09/30 17:13:53;;;;;;;17.92;11.18;;;7.90;99.90;;;;;;8264161;28;20024;-81
2022/09/30 17:17:53;;;;;;;18.90;11.80;;;7.70;99.90;;;;;;8263809;28;20483;-80
2022/09/30 17:21:54;;;;;;;18.63;11.88;;;7.50;99.90;;;;;;8265162;28;20068;-80
2022/09/30 17:25:55;;;;;;;20.70;13.60;;;7.30;99.90;;;;;;8264027;28;20081;-80
2022/09/30 17:29:55;;;;;;;20.73;12.77;;;7.30;99.90;;;;;;8263292;28;20395;-80
2022/09/30 17:33:56;;;;;;;21.00;13.65;;;7.30;99.90;;;;;;8264321;28;20026;-81
2022/09/30 17:37:56;;;;;;;23.02;13.93;;;7.00;99.90;;;;;;8257677;28;20507;-80
2022/09/30 17:46:19;;;;;;;31.40;19.40;;;6.60;99.90;;;;;;8263232;28;20033;-79
2022/09/30 17:50:20;;;;;;;37.05;22.90;;;6.50;99.90;;;;;;8262534;28;20505;-78
2022/09/30 17:54:21;;;;;;;26.05;17.08;;;6.40;99.90;;;;;;8256356;28;20029;-79
2022/09/30 17:58:22;;;;;;;40.72;24.20;;;6.40;99.90;;;;;;8261704;28;20294;-80
2022/09/30 18:02:24;;;;;;;24.73;14.60;;;6.40;99.90;;;;;;8261013;28;20018;-79
2022/09/30 18:06:26;;;;;;;24.38;13.82;;;6.30;99.90;;;;;;8264792;28;20034;-78
2022/09/30 18:10:27;;;;;;;22.40;12.82;;;6.30;99.90;;;;;;8268749;28;20019;-80
2022/09/30 18:14:33;;;;;;;23.05;12.43;;;6.30;99.90;;;;;;8294288;28;20130;-79
2022/09/30 18:18:34;;;;;;;17.00;10.65;;;6.20;99.90;;;;;;8273010;28;20026;-81
2022/09/30 18:22:35;;;;;;;19.45;10.82;;;6.10;99.90;;;;;;8268745;28;20080;-79
2022/09/30 18:26:35;;;;;;;22.55;12.35;;;5.90;99.90;;;;;;8268054;28;20022;-79
2022/09/30 18:30:38;;;;;;;28.05;13.80;;;5.80;99.90;;;;;;8269144;28;20049;-79
2022/09/30 18:34:38;;;;;;;28.23;14.88;;;5.70;99.90;;;;;;8268452;28;20065;-80
2022/09/30 18:38:38;;;;;;;25.58;13.60;;;5.70;99.90;;;;;;8267915;28;20372;-78
2022/09/30 18:42:39;;;;;;;24.35;13.00;;;5.70;99.90;;;;;;8267642;28;20036;-78
2022/09/30 18:46:41;;;;;;;21.73;12.32;;;5.70;99.90;;;;;;8266600;28;20061;-78
2022/09/30 18:50:42;;;;;;;24.17;11.93;;;5.70;99.90;;;;;;8269454;28;20025;-79
2022/09/30 18:54:43;;;;;;;25.17;12.73;;;5.70;99.90;;;;;;8268824;28;20376;-80
2022/09/30 18:58:43;;;;;;;21.23;11.90;;;5.60;99.90;;;;;;8267034;28;20026;-79
2022/09/30 19:02:44;;;;;;;25.27;12.55;;;5.60;99.90;;;;;;8267965;28;20022;-79
2022/09/30 19:06:46;;;;;;;25.50;13.35;;;5.50;99.90;;;;;;8266304;28;20019;-79
2022/09/30 19:10:46;;;;;;;31.58;16.40;;;5.30;99.90;;;;;;8268920;28;20093;-79
2022/09/30 19:14:47;;;;;;;30.17;14.20;;;5.40;99.90;;;;;;8262783;28;20061;-79
2022/09/30 19:18:48;;;;;;;34.72;15.23;;;5.70;99.90;;;;;;8262567;28;20419;-79
2022/09/30 19:22:50;;;;;;;31.20;15.48;;;5.70;99.90;;;;;;8263011;28;20022;-78
2022/09/30 19:26:51;;;;;;;23.77;12.98;;;5.80;99.90;;;;;;8263684;28;20030;-78
2022/09/30 19:30:52;;;;;;;22.48;12.57;;;5.60;99.90;;;;;;8258609;28;20068;-78
2022/09/30 19:34:54;;;;;;;25.25;13.43;;;5.20;99.90;;;;;;8254527;28;20019;-78
2022/09/30 19:38:58;;;;;;;27.58;14.68;;;5.10;99.90;;;;;;8261626;28;20026;-77
2022/09/30 19:42:58;;;;;;;26.83;13.55;;;5.00;99.90;;;;;;8260009;28;20015;-78
2022/09/30 19:46:59;;;;;;;29.75;14.63;;;4.80;99.90;;;;;;8257917;28;20524;-78
2022/09/30 19:51:02;;;;;;;26.33;14.25;;;4.70;99.90;;;;;;8263749;28;20030;-77
2022/09/30 19:55:03;;;;;;;25.35;14.30;;;4.70;99.90;;;;;;8262696;28;20037;-77
2022/09/30 19:59:04;;;;;;;26.38;13.80;;;4.70;99.90;;;;;;8262636;28;20054;-78
2022/09/30 20:03:04;;;;;;;26.98;14.38;;;4.70;99.90;;;;;;8262460;28;20505;-78
2022/09/30 20:07:05;;;;;;;24.65;13.60;;;4.60;99.90;;;;;;8253174;28;20050;-78
2022/09/30 20:11:10;;;;;;;29.67;15.00;;;4.60;99.90;;;;;;8261875;28;20402;-77
2022/09/30 20:19:30;;;;;;;26.25;14.05;;;4.70;99.90;;;;;;8256577;28;20395;-77
2022/09/30 20:23:35;;;;;;;27.73;13.77;;;4.60;99.90;;;;;;8260653;28;20030;-77
2022/09/30 20:27:35;;;;;;;26.45;14.55;;;4.50;99.90;;;;;;8259420;28;20125;-78
2022/09/30 20:31:41;;;;;;;32.33;15.20;;;4.40;99.90;;;;;;8259219;28;20015;-77
2022/09/30 20:35:41;;;;;;;30.65;16.08;;;4.30;99.90;;;;;;8259535;28;20030;-77
2022/09/30 20:39:42;;;;;;;35.83;15.95;;;4.20;99.90;;;;;;8259496;28;20018;-77
2022/09/30 20:43:43;;;;;;;35.35;15.50;;;4.10;99.90;;;;;;8259040;28;20498;-77
2022/09/30 20:47:45;;;;;;;29.80;14.52;;;4.10;99.90;;;;;;8259834;28;20109;-77
2022/09/30 20:51:46;;;;;;;30.20;14.55;;;4.00;99.90;;;;;;8256881;28;20030;-77
2022/09/30 20:55:47;;;;;;;31.08;15.68;;;3.90;99.90;;;;;;8255837;28;20046;-78
2022/09/30 20:59:47;;;;;;;37.03;16.13;;;3.90;99.90;;;;;;8262264;28;20029;-77
2022/09/30 21:03:51;;;;;;;42.75;16.70;;;4.10;99.90;;;;;;8259592;28;20027;-78
2022/09/30 21:07:52;;;;;;;48.17;14.95;;;4.30;99.90;;;;;;8260877;28;20105;-78
2022/09/30 21:11:52;;;;;;;30.65;12.25;;;4.50;99.90;;;;;;8261777;28;20053;-76
2022/09/30 21:16:01;;;;;;;18.83;10.88;;;4.70;99.90;;;;;;8261323;28;20023;-78
2022/09/30 21:20:02;;;;;;;27.88;12.05;;;5.00;99.90;;;;;;8261763;28;20030;-78
2022/09/30 21:24:02;;;;;;;20.83;11.32;;;4.70;99.90;;;;;;8261392;28;20018;-77
2022/09/30 21:28:03;;;;;;;44.75;12.73;;;4.50;99.90;;;;;;8261421;28;20091;-79
2022/09/30 21:32:03;;;;;;;49.28;10.77;;;4.10;99.90;;;;;;8261328;28;20029;-78
2022/09/30 21:36:05;;;;;;;20.75;12.05;;;3.80;99.90;;;;;;8260419;28;20026;-78